sensor_id;sensor_type;location;lat;lon;timestamp;noise_LAeq;noise_LA_min;noise_LA_max;noise_LA01;noise_LA95
69608;Laerm;57251;52.248;4.812;2023-06-14T00:00:09;34.28;32.09;37.81;;
69608;Laerm;57251;52.248;4.812;2023-06-14T00:00:22;33.00;31.51;34.30;;
69608;Laerm;57251;52.248;4.812;2023-06-14T00:00:32;33.04;31.76;34.20;;
69608;Laerm;57251;52.248;4.812;2023-06-14T00:00:44;33.35;32.00;35.28;;
69608;Laerm;57251;52.248;4.812;2023-06-14T00:00:54;33.24;31.91;34.67;;
69608;Laerm;57251;52.248;4.812;2023-06-14T00:01:06;33.09;31.51;34.23;;
69608;Laerm;57251;52.248;4.812;2023-06-14T00:01:17;33.44;32.07;34.62;;
69608;Laerm;57251;52.248;4.812;2023-06-14T00:01:30;33.56;31.83;35.03;;
69608;Laerm;57251;52.248;4.812;2023-06-14T00:01:41;33.76;32.40;34.97;;
69608;Laerm;57251;52.248;4.812;2023-06-14T00:01:55;34.64;32.62;37.87;;
69608;Laerm;57251;52.248;4.812;2023-06-14T00:02:06;33.24;31.59;35.06;;
69608;Laerm;57251;52.248;4.812;2023-06-14T00:02:18;33.26;31.78;36.27;;
69608;Laerm;57251;52.248;4.812;2023-06-14T00:02:28;33.46;31.56;34.73;;
69608;Laerm;57251;52.248;4.812;2023-06-14T00:02:39;33.59;32.00;35.14;;
69608;Laerm;57251;52.248;4.812;2023-06-14T00:02:49;33.41;31.95;34.85;;
69608;Laerm;57251;52.248;4.812;2023-06-14T00:02:59;33.55;31.49;35.18;;
69608;Laerm;57251;52.248;4.812;2023-06-14T00:03:10;33.66;31.92;35.76;;
69608;Laerm;57251;52.248;4.812;2023-06-14T00:03:21;34.67;32.43;37.15;;
69608;Laerm;57251;52.248;4.812;2023-06-14T00:03:32;33.68;32.12;35.37;;
69608;Laerm;57251;52.248;4.812;2023-06-14T00:03:42;33.87;32.28;35.84;;
69608;Laerm;57251;52.248;4.812;2023-06-14T00:03:53;34.29;32.46;36.66;;
69608;Laerm;57251;52.248;4.812;2023-06-14T00:04:04;34.08;32.36;37.38;;
69608;Laerm;57251;52.248;4.812;2023-06-14T00:04:15;33.70;32.13;35.72;;
69608;Laerm;57251;52.248;4.812;2023-06-14T00:04:30;34.10;31.91;38.61;;
69608;Laerm;57251;52.248;4.812;2023-06-14T00:04:40;33.62;32.17;39.86;;
69608;Laerm;57251;52.248;4.812;2023-06-14T00:04:51;33.68;31.59;35.97;;
69608;Laerm;57251;52.248;4.812;2023-06-14T00:05:02;33.68;31.81;36.26;;
69608;Laerm;57251;52.248;4.812;2023-06-14T00:05:12;33.02;31.66;34.68;;
69608;Laerm;57251;52.248;4.812;2023-06-14T00:05:23;33.95;31.83;41.54;;
69608;Laerm;57251;52.248;4.812;2023-06-14T00:05:34;33.68;31.75;35.56;;
69608;Laerm;57251;52.248;4.812;2023-06-14T00:05:48;33.36;31.70;35.41;;
69608;Laerm;57251;52.248;4.812;2023-06-14T00:05:59;33.98;32.00;35.59;;
69608;Laerm;57251;52.248;4.812;2023-06-14T00:06:09;33.31;31.98;36.08;;
69608;Laerm;57251;52.248;4.812;2023-06-14T00:06:19;33.38;31.92;34.92;;
69608;Laerm;57251;52.248;4.812;2023-06-14T00:06:29;33.51;31.52;35.16;;
69608;Laerm;57251;52.248;4.812;2023-06-14T00:06:40;36.60;32.26;43.68;;
69608;Laerm;57251;52.248;4.812;2023-06-14T00:06:51;36.73;32.37;47.65;;
69608;Laerm;57251;52.248;4.812;2023-06-14T00:07:02;41.40;32.48;50.83;;
69608;Laerm;57251;52.248;4.812;2023-06-14T00:07:12;36.59;32.16;43.68;;
69608;Laerm;57251;52.248;4.812;2023-06-14T00:07:33;36.10;31.92;44.07;;
69608;Laerm;57251;52.248;4.812;2023-06-14T00:07:43;33.96;31.91;41.21;;
69608;Laerm;57251;52.248;4.812;2023-06-14T00:07:53;33.22;31.88;34.71;;
69608;Laerm;57251;52.248;4.812;2023-06-14T00:08:04;33.30;31.58;35.65;;
69608;Laerm;57251;52.248;4.812;2023-06-14T00:08:17;33.69;32.15;37.37;;
69608;Laerm;57251;52.248;4.812;2023-06-14T00:08:28;34.19;32.09;37.64;;
69608;Laerm;57251;52.248;4.812;2023-06-14T00:08:39;33.91;31.99;36.29;;
69608;Laerm;57251;52.248;4.812;2023-06-14T00:08:50;33.26;31.95;35.29;;
69608;Laerm;57251;52.248;4.812;2023-06-14T00:09:01;34.30;32.06;38.75;;
69608;Laerm;57251;52.248;4.812;2023-06-14T00:09:11;33.69;32.12;35.60;;
69608;Laerm;57251;52.248;4.812;2023-06-14T00:09:25;34.74;32.43;40.11;;
69608;Laerm;57251;52.248;4.812;2023-06-14T00:09:36;34.54;32.36;37.21;;
69608;Laerm;57251;52.248;4.812;2023-06-14T00:09:46;34.09;32.46;36.59;;
69608;Laerm;57251;52.248;4.812;2023-06-14T00:09:56;33.53;32.14;35.14;;
69608;Laerm;57251;52.248;4.812;2023-06-14T00:10:06;33.16;31.80;34.32;;
69608;Laerm;57251;52.248;4.812;2023-06-14T00:10:17;33.51;32.15;35.09;;
69608;Laerm;57251;52.248;4.812;2023-06-14T00:10:27;33.63;31.74;35.46;;
69608;Laerm;57251;52.248;4.812;2023-06-14T00:10:41;33.09;31.32;34.81;;
69608;Laerm;57251;52.248;4.812;2023-06-14T00:10:52;32.97;31.63;34.35;;
69608;Laerm;57251;52.248;4.812;2023-06-14T00:11:02;33.15;31.39;34.57;;
69608;Laerm;57251;52.248;4.812;2023-06-14T00:11:12;33.06;31.69;34.62;;
69608;Laerm;57251;52.248;4.812;2023-06-14T00:11:22;33.19;31.51;35.36;;
69608;Laerm;57251;52.248;4.812;2023-06-14T00:11:32;33.24;31.53;34.62;;
69608;Laerm;57251;52.248;4.812;2023-06-14T00:11:43;33.84;31.72;37.37;;
69608;Laerm;57251;52.248;4.812;2023-06-14T00:11:53;33.23;31.69;35.07;;
69608;Laerm;57251;52.248;4.812;2023-06-14T00:12:04;33.22;32.02;36.22;;
69608;Laerm;57251;52.248;4.812;2023-06-14T00:12:16;33.10;31.41;35.69;;
69608;Laerm;57251;52.248;4.812;2023-06-14T00:12:26;33.10;31.62;34.49;;
69608;Laerm;57251;52.248;4.812;2023-06-14T00:12:38;33.20;31.83;37.95;;
69608;Laerm;57251;52.248;4.812;2023-06-14T00:12:49;33.12;31.69;34.70;;
69608;Laerm;57251;52.248;4.812;2023-06-14T00:12:59;33.19;31.61;34.79;;
69608;Laerm;57251;52.248;4.812;2023-06-14T00:13:09;33.29;32.04;34.98;;
69608;Laerm;57251;52.248;4.812;2023-06-14T00:13:20;33.82;31.99;41.50;;
69608;Laerm;57251;52.248;4.812;2023-06-14T00:13:30;34.06;32.45;36.57;;
69608;Laerm;57251;52.248;4.812;2023-06-14T00:13:40;34.44;31.97;38.28;;
69608;Laerm;57251;52.248;4.812;2023-06-14T00:13:51;34.73;31.94;37.87;;
69608;Laerm;57251;52.248;4.812;2023-06-14T00:14:01;33.97;32.19;37.19;;
69608;Laerm;57251;52.248;4.812;2023-06-14T00:14:12;34.00;31.90;38.33;;
69608;Laerm;57251;52.248;4.812;2023-06-14T00:14:23;34.18;32.55;36.35;;
69608;Laerm;57251;52.248;4.812;2023-06-14T00:14:34;34.91;32.66;38.40;;
69608;Laerm;57251;52.248;4.812;2023-06-14T00:14:44;34.25;31.79;37.50;;
69608;Laerm;57251;52.248;4.812;2023-06-14T00:14:54;34.69;32.67;37.83;;
69608;Laerm;57251;52.248;4.812;2023-06-14T00:15:05;33.97;32.15;35.81;;
69608;Laerm;57251;52.248;4.812;2023-06-14T00:15:15;33.99;32.08;36.73;;
69608;Laerm;57251;52.248;4.812;2023-06-14T00:15:26;34.64;32.32;37.57;;
69608;Laerm;57251;52.248;4.812;2023-06-14T00:15:36;33.95;31.78;35.86;;
69608;Laerm;57251;52.248;4.812;2023-06-14T00:15:46;34.38;32.62;40.55;;
69608;Laerm;57251;52.248;4.812;2023-06-14T00:15:57;34.48;31.81;38.07;;
69608;Laerm;57251;52.248;4.812;2023-06-14T00:16:07;34.22;31.95;37.84;;
69608;Laerm;57251;52.248;4.812;2023-06-14T00:16:18;35.93;32.98;45.35;;
69608;Laerm;57251;52.248;4.812;2023-06-14T00:16:29;34.41;32.57;36.87;;
69608;Laerm;57251;52.248;4.812;2023-06-14T00:16:39;33.88;31.95;38.40;;
69608;Laerm;57251;52.248;4.812;2023-06-14T00:16:52;34.95;31.72;40.63;;
69608;Laerm;57251;52.248;4.812;2023-06-14T00:17:02;34.63;32.61;38.22;;
69608;Laerm;57251;52.248;4.812;2023-06-14T00:17:13;34.45;32.92;36.27;;
69608;Laerm;57251;52.248;4.812;2023-06-14T00:17:26;36.42;33.02;40.95;;
69608;Laerm;57251;52.248;4.812;2023-06-14T00:17:40;34.63;32.80;36.88;;
69608;Laerm;57251;52.248;4.812;2023-06-14T00:17:50;34.87;32.52;36.82;;
69608;Laerm;57251;52.248;4.812;2023-06-14T00:18:01;35.25;32.97;41.41;;
69608;Laerm;57251;52.248;4.812;2023-06-14T00:18:11;34.55;32.96;36.24;;
69608;Laerm;57251;52.248;4.812;2023-06-14T00:18:22;35.57;32.82;40.92;;
69608;Laerm;57251;52.248;4.812;2023-06-14T00:18:34;36.96;32.94;45.59;;
69608;Laerm;57251;52.248;4.812;2023-06-14T00:18:44;37.40;33.68;45.09;;
69608;Laerm;57251;52.248;4.812;2023-06-14T00:18:54;35.88;33.04;44.99;;
69608;Laerm;57251;52.248;4.812;2023-06-14T00:19:04;34.74;32.69;42.53;;
69608;Laerm;57251;52.248;4.812;2023-06-14T00:19:15;34.83;32.69;37.06;;
69608;Laerm;57251;52.248;4.812;2023-06-14T00:19:26;35.00;33.00;38.15;;
69608;Laerm;57251;52.248;4.812;2023-06-14T00:19:36;34.97;32.86;37.46;;
69608;Laerm;57251;52.248;4.812;2023-06-14T00:19:46;34.03;31.98;35.53;;
69608;Laerm;57251;52.248;4.812;2023-06-14T00:20:00;35.24;32.70;39.85;;
69608;Laerm;57251;52.248;4.812;2023-06-14T00:20:10;34.03;31.62;35.76;;
69608;Laerm;57251;52.248;4.812;2023-06-14T00:20:20;33.89;32.09;35.77;;
69608;Laerm;57251;52.248;4.812;2023-06-14T00:20:32;34.13;32.32;35.35;;
69608;Laerm;57251;52.248;4.812;2023-06-14T00:20:42;34.14;32.56;36.20;;
69608;Laerm;57251;52.248;4.812;2023-06-14T00:20:53;33.65;32.32;35.11;;
69608;Laerm;57251;52.248;4.812;2023-06-14T00:21:04;33.92;32.30;39.63;;
69608;Laerm;57251;52.248;4.812;2023-06-14T00:21:14;33.85;31.88;35.27;;
69608;Laerm;57251;52.248;4.812;2023-06-14T00:21:24;33.75;31.79;35.75;;
69608;Laerm;57251;52.248;4.812;2023-06-14T00:21:34;34.44;32.38;36.21;;
69608;Laerm;57251;52.248;4.812;2023-06-14T00:21:45;33.90;32.18;35.34;;
69608;Laerm;57251;52.248;4.812;2023-06-14T00:21:55;34.23;32.35;36.19;;
69608;Laerm;57251;52.248;4.812;2023-06-14T00:22:06;34.89;33.12;37.72;;
69608;Laerm;57251;52.248;4.812;2023-06-14T00:22:17;35.32;33.35;37.60;;
69608;Laerm;57251;52.248;4.812;2023-06-14T00:22:27;34.32;32.77;38.06;;
69608;Laerm;57251;52.248;4.812;2023-06-14T00:22:40;34.97;32.56;38.11;;
69608;Laerm;57251;52.248;4.812;2023-06-14T00:22:51;35.79;34.10;37.43;;
69608;Laerm;57251;52.248;4.812;2023-06-14T00:23:02;35.50;33.02;40.18;;
69608;Laerm;57251;52.248;4.812;2023-06-14T00:23:12;34.99;33.05;36.89;;
69608;Laerm;57251;52.248;4.812;2023-06-14T00:23:22;35.94;34.11;38.18;;
69608;Laerm;57251;52.248;4.812;2023-06-14T00:23:32;35.81;33.11;43.92;;
69608;Laerm;57251;52.248;4.812;2023-06-14T00:23:42;34.42;32.47;36.35;;
69608;Laerm;57251;52.248;4.812;2023-06-14T00:23:53;33.87;32.03;35.67;;
69608;Laerm;57251;52.248;4.812;2023-06-14T00:24:03;34.14;32.13;36.20;;
69608;Laerm;57251;52.248;4.812;2023-06-14T00:24:13;34.01;32.45;35.73;;
69608;Laerm;57251;52.248;4.812;2023-06-14T00:24:24;34.78;33.05;36.33;;
69608;Laerm;57251;52.248;4.812;2023-06-14T00:24:34;35.26;33.29;37.98;;
69608;Laerm;57251;52.248;4.812;2023-06-14T00:24:45;35.07;33.19;37.16;;
69608;Laerm;57251;52.248;4.812;2023-06-14T00:24:55;36.52;34.33;38.67;;
69608;Laerm;57251;52.248;4.812;2023-06-14T00:25:05;35.42;33.57;37.05;;
69608;Laerm;57251;52.248;4.812;2023-06-14T00:25:16;34.78;32.74;36.12;;
69608;Laerm;57251;52.248;4.812;2023-06-14T00:25:26;35.14;32.80;37.02;;
69608;Laerm;57251;52.248;4.812;2023-06-14T00:25:36;36.12;34.06;38.75;;
69608;Laerm;57251;52.248;4.812;2023-06-14T00:25:46;35.66;32.89;40.48;;
69608;Laerm;57251;52.248;4.812;2023-06-14T00:25:57;34.15;32.62;36.70;;
69608;Laerm;57251;52.248;4.812;2023-06-14T00:26:07;34.35;32.34;37.72;;
69608;Laerm;57251;52.248;4.812;2023-06-14T00:26:17;34.13;32.20;36.16;;
69608;Laerm;57251;52.248;4.812;2023-06-14T00:26:27;33.48;31.98;34.92;;
69608;Laerm;57251;52.248;4.812;2023-06-14T00:26:37;33.69;32.18;35.74;;
69608;Laerm;57251;52.248;4.812;2023-06-14T00:26:48;33.03;31.79;34.22;;
69608;Laerm;57251;52.248;4.812;2023-06-14T00:26:58;33.30;32.02;34.69;;
69608;Laerm;57251;52.248;4.812;2023-06-14T00:27:08;33.77;32.20;38.05;;
69608;Laerm;57251;52.248;4.812;2023-06-14T00:27:19;34.53;32.26;39.19;;
69608;Laerm;57251;52.248;4.812;2023-06-14T00:27:30;33.94;32.05;36.16;;
69608;Laerm;57251;52.248;4.812;2023-06-14T00:27:40;33.82;31.99;35.34;;
69608;Laerm;57251;52.248;4.812;2023-06-14T00:27:50;33.14;31.51;34.50;;
69608;Laerm;57251;52.248;4.812;2023-06-14T00:28:01;33.14;31.73;34.69;;
69608;Laerm;57251;52.248;4.812;2023-06-14T00:28:11;33.02;31.35;34.49;;
69608;Laerm;57251;52.248;4.812;2023-06-14T00:28:21;33.67;31.94;36.76;;
69608;Laerm;57251;52.248;4.812;2023-06-14T00:28:31;33.81;32.14;35.44;;
69608;Laerm;57251;52.248;4.812;2023-06-14T00:28:41;33.38;32.11;35.01;;
69608;Laerm;57251;52.248;4.812;2023-06-14T00:28:52;33.14;31.50;34.33;;
69608;Laerm;57251;52.248;4.812;2023-06-14T00:29:02;33.36;31.73;35.76;;
69608;Laerm;57251;52.248;4.812;2023-06-14T00:29:12;33.82;31.53;37.92;;
69608;Laerm;57251;52.248;4.812;2023-06-14T00:29:23;34.07;32.09;35.80;;
69608;Laerm;57251;52.248;4.812;2023-06-14T00:29:33;33.48;31.85;35.42;;
69608;Laerm;57251;52.248;4.812;2023-06-14T00:29:43;33.33;32.19;35.93;;
69608;Laerm;57251;52.248;4.812;2023-06-14T00:29:53;33.72;32.12;35.04;;
69608;Laerm;57251;52.248;4.812;2023-06-14T00:30:04;33.91;32.24;35.95;;
69608;Laerm;57251;52.248;4.812;2023-06-14T00:30:14;34.15;32.87;35.82;;
69608;Laerm;57251;52.248;4.812;2023-06-14T00:30:25;33.98;32.11;36.60;;
69608;Laerm;57251;52.248;4.812;2023-06-14T00:30:35;33.18;31.34;34.42;;
69608;Laerm;57251;52.248;4.812;2023-06-14T00:30:45;32.91;31.53;37.38;;
69608;Laerm;57251;52.248;4.812;2023-06-14T00:30:56;33.33;31.72;40.23;;
69608;Laerm;57251;52.248;4.812;2023-06-14T00:31:06;34.10;31.33;38.81;;
69608;Laerm;57251;52.248;4.812;2023-06-14T00:31:16;33.43;31.69;41.61;;
69608;Laerm;57251;52.248;4.812;2023-06-14T00:31:27;33.77;31.41;43.08;;
69608;Laerm;57251;52.248;4.812;2023-06-14T00:31:37;33.83;31.38;36.41;;
69608;Laerm;57251;52.248;4.812;2023-06-14T00:31:47;34.24;31.93;50.58;;
69608;Laerm;57251;52.248;4.812;2023-06-14T00:31:57;34.48;31.65;51.74;;
69608;Laerm;57251;52.248;4.812;2023-06-14T00:32:07;33.28;31.64;34.93;;
69608;Laerm;57251;52.248;4.812;2023-06-14T00:32:18;34.23;32.65;36.27;;
69608;Laerm;57251;52.248;4.812;2023-06-14T00:32:28;33.82;32.19;38.63;;
69608;Laerm;57251;52.248;4.812;2023-06-14T00:32:39;35.43;32.09;53.66;;
69608;Laerm;57251;52.248;4.812;2023-06-14T00:32:49;34.73;32.80;36.50;;
69608;Laerm;57251;52.248;4.812;2023-06-14T00:33:00;34.64;32.41;37.09;;
69608;Laerm;57251;52.248;4.812;2023-06-14T00:33:10;34.22;32.44;36.36;;
69608;Laerm;57251;52.248;4.812;2023-06-14T00:33:20;35.90;32.48;53.16;;
69608;Laerm;57251;52.248;4.812;2023-06-14T00:33:31;35.27;32.39;53.49;;
69608;Laerm;57251;52.248;4.812;2023-06-14T00:33:41;36.61;31.77;54.71;;
69608;Laerm;57251;52.248;4.812;2023-06-14T00:33:51;33.46;31.91;35.07;;
69608;Laerm;57251;52.248;4.812;2023-06-14T00:34:01;33.57;32.02;36.01;;
69608;Laerm;57251;52.248;4.812;2023-06-14T00:34:11;33.49;31.93;35.51;;
69608;Laerm;57251;52.248;4.812;2023-06-14T00:34:22;32.94;31.61;34.27;;
69608;Laerm;57251;52.248;4.812;2023-06-14T00:34:32;33.41;31.92;35.41;;
69608;Laerm;57251;52.248;4.812;2023-06-14T00:34:42;33.40;31.68;35.14;;
69608;Laerm;57251;52.248;4.812;2023-06-14T00:34:52;32.89;31.62;34.18;;
69608;Laerm;57251;52.248;4.812;2023-06-14T00:35:02;33.19;31.61;35.97;;
69608;Laerm;57251;52.248;4.812;2023-06-14T00:35:13;33.24;31.67;37.42;;
69608;Laerm;57251;52.248;4.812;2023-06-14T00:35:23;33.28;31.37;35.49;;
69608;Laerm;57251;52.248;4.812;2023-06-14T00:35:33;33.68;31.78;36.90;;
69608;Laerm;57251;52.248;4.812;2023-06-14T00:35:44;33.96;31.77;36.53;;
69608;Laerm;57251;52.248;4.812;2023-06-14T00:35:54;33.30;31.60;35.64;;
69608;Laerm;57251;52.248;4.812;2023-06-14T00:36:04;33.05;31.26;34.49;;
69608;Laerm;57251;52.248;4.812;2023-06-14T00:36:15;33.45;32.16;34.78;;
69608;Laerm;57251;52.248;4.812;2023-06-14T00:36:25;33.43;31.75;37.33;;
69608;Laerm;57251;52.248;4.812;2023-06-14T00:36:35;33.21;31.70;37.29;;
69608;Laerm;57251;52.248;4.812;2023-06-14T00:36:45;33.01;31.44;35.47;;
69608;Laerm;57251;52.248;4.812;2023-06-14T00:36:55;33.56;32.00;35.41;;
69608;Laerm;57251;52.248;4.812;2023-06-14T00:37:06;33.39;31.82;35.10;;
69608;Laerm;57251;52.248;4.812;2023-06-14T00:37:16;33.26;31.89;34.63;;
69608;Laerm;57251;52.248;4.812;2023-06-14T00:37:26;33.50;32.09;35.16;;
69608;Laerm;57251;52.248;4.812;2023-06-14T00:37:36;34.34;31.59;36.96;;
69608;Laerm;57251;52.248;4.812;2023-06-14T00:37:47;36.21;33.25;39.20;;
69608;Laerm;57251;52.248;4.812;2023-06-14T00:37:57;34.22;32.40;36.01;;
69608;Laerm;57251;52.248;4.812;2023-06-14T00:38:07;34.63;32.41;37.46;;
69608;Laerm;57251;52.248;4.812;2023-06-14T00:38:17;35.13;32.66;37.17;;
69608;Laerm;57251;52.248;4.812;2023-06-14T00:38:27;34.89;31.40;38.71;;
69608;Laerm;57251;52.248;4.812;2023-06-14T00:38:38;33.60;31.89;35.11;;
69608;Laerm;57251;52.248;4.812;2023-06-14T00:38:48;33.66;31.64;40.79;;
69608;Laerm;57251;52.248;4.812;2023-06-14T00:38:58;33.33;31.61;35.51;;
69608;Laerm;57251;52.248;4.812;2023-06-14T00:39:08;33.09;31.59;35.42;;
69608;Laerm;57251;52.248;4.812;2023-06-14T00:39:19;33.15;31.64;35.23;;
69608;Laerm;57251;52.248;4.812;2023-06-14T00:39:30;34.01;31.99;36.25;;
69608;Laerm;57251;52.248;4.812;2023-06-14T00:39:40;33.51;31.82;35.87;;
69608;Laerm;57251;52.248;4.812;2023-06-14T00:39:50;33.91;32.01;37.24;;
69608;Laerm;57251;52.248;4.812;2023-06-14T00:40:00;33.30;31.86;35.23;;
69608;Laerm;57251;52.248;4.812;2023-06-14T00:40:11;33.14;31.90;34.77;;
69608;Laerm;57251;52.248;4.812;2023-06-14T00:40:21;34.58;32.05;36.96;;
69608;Laerm;57251;52.248;4.812;2023-06-14T00:40:31;36.82;34.37;39.74;;
69608;Laerm;57251;52.248;4.812;2023-06-14T00:40:42;35.31;32.66;37.86;;
69608;Laerm;57251;52.248;4.812;2023-06-14T00:40:52;35.44;32.89;38.06;;
69608;Laerm;57251;52.248;4.812;2023-06-14T00:41:02;35.91;32.21;42.18;;
69608;Laerm;57251;52.248;4.812;2023-06-14T00:41:12;34.25;31.94;38.94;;
69608;Laerm;57251;52.248;4.812;2023-06-14T00:41:22;33.41;32.06;35.12;;
69608;Laerm;57251;52.248;4.812;2023-06-14T00:41:33;33.59;31.79;35.12;;
69608;Laerm;57251;52.248;4.812;2023-06-14T00:41:43;33.92;32.34;39.54;;
69608;Laerm;57251;52.248;4.812;2023-06-14T00:41:53;33.68;31.84;44.20;;
69608;Laerm;57251;52.248;4.812;2023-06-14T00:42:03;33.99;32.41;35.44;;
69608;Laerm;57251;52.248;4.812;2023-06-14T00:42:24;33.65;31.87;35.92;;
69608;Laerm;57251;52.248;4.812;2023-06-14T00:42:35;33.38;31.66;36.74;;
69608;Laerm;57251;52.248;4.812;2023-06-14T00:42:45;33.13;31.22;35.09;;
69608;Laerm;57251;52.248;4.812;2023-06-14T00:42:55;35.31;32.20;55.04;;
69608;Laerm;57251;52.248;4.812;2023-06-14T00:43:06;33.41;32.09;34.76;;
69608;Laerm;57251;52.248;4.812;2023-06-14T00:43:16;33.70;32.22;35.45;;
69608;Laerm;57251;52.248;4.812;2023-06-14T00:43:26;34.12;32.23;36.84;;
69608;Laerm;57251;52.248;4.812;2023-06-14T00:43:36;33.67;31.90;36.69;;
69608;Laerm;57251;52.248;4.812;2023-06-14T00:43:46;34.33;32.37;37.40;;
69608;Laerm;57251;52.248;4.812;2023-06-14T00:43:57;35.75;32.74;49.33;;
69608;Laerm;57251;52.248;4.812;2023-06-14T00:44:07;34.88;32.22;42.96;;
69608;Laerm;57251;52.248;4.812;2023-06-14T00:44:17;33.82;32.39;35.77;;
69608;Laerm;57251;52.248;4.812;2023-06-14T00:44:27;34.25;32.59;36.25;;
69608;Laerm;57251;52.248;4.812;2023-06-14T00:44:38;34.57;32.65;37.59;;
69608;Laerm;57251;52.248;4.812;2023-06-14T00:44:48;34.57;32.35;51.79;;
69608;Laerm;57251;52.248;4.812;2023-06-14T00:44:59;33.41;31.93;41.47;;
69608;Laerm;57251;52.248;4.812;2023-06-14T00:45:10;34.29;32.43;37.80;;
69608;Laerm;57251;52.248;4.812;2023-06-14T00:45:20;33.61;32.06;35.04;;
69608;Laerm;57251;52.248;4.812;2023-06-14T00:45:30;33.28;31.36;35.65;;
69608;Laerm;57251;52.248;4.812;2023-06-14T00:45:41;33.79;31.60;35.04;;
69608;Laerm;57251;52.248;4.812;2023-06-14T00:45:51;33.67;31.95;37.77;;
69608;Laerm;57251;52.248;4.812;2023-06-14T00:46:02;33.51;31.54;39.36;;
69608;Laerm;57251;52.248;4.812;2023-06-14T00:46:12;33.20;31.72;34.84;;
69608;Laerm;57251;52.248;4.812;2023-06-14T00:46:22;33.26;31.64;34.55;;
69608;Laerm;57251;52.248;4.812;2023-06-14T00:46:32;33.47;31.69;35.19;;
69608;Laerm;57251;52.248;4.812;2023-06-14T00:46:43;34.17;32.19;37.41;;
69608;Laerm;57251;52.248;4.812;2023-06-14T00:46:53;34.58;32.41;37.53;;
69608;Laerm;57251;52.248;4.812;2023-06-14T00:47:04;34.65;32.34;37.17;;
69608;Laerm;57251;52.248;4.812;2023-06-14T00:47:14;34.13;32.28;36.74;;
69608;Laerm;57251;52.248;4.812;2023-06-14T00:47:25;33.81;31.84;36.37;;
69608;Laerm;57251;52.248;4.812;2023-06-14T00:47:36;33.76;32.31;36.66;;
69608;Laerm;57251;52.248;4.812;2023-06-14T00:47:48;33.71;32.09;36.31;;
69608;Laerm;57251;52.248;4.812;2023-06-14T00:48:01;33.53;31.59;35.31;;
69608;Laerm;57251;52.248;4.812;2023-06-14T00:48:12;34.18;31.86;36.18;;
69608;Laerm;57251;52.248;4.812;2023-06-14T00:48:23;34.15;32.11;36.33;;
69608;Laerm;57251;52.248;4.812;2023-06-14T00:48:35;34.34;32.77;36.68;;
69608;Laerm;57251;52.248;4.812;2023-06-14T00:48:46;35.02;32.84;38.28;;
69608;Laerm;57251;52.248;4.812;2023-06-14T00:48:57;34.70;32.85;37.13;;
69608;Laerm;57251;52.248;4.812;2023-06-14T00:49:08;33.98;32.77;35.60;;
69608;Laerm;57251;52.248;4.812;2023-06-14T00:49:18;34.07;32.68;37.01;;
69608;Laerm;57251;52.248;4.812;2023-06-14T00:49:29;35.03;33.12;38.23;;
69608;Laerm;57251;52.248;4.812;2023-06-14T00:49:39;34.77;32.76;38.25;;
69608;Laerm;57251;52.248;4.812;2023-06-14T00:49:49;34.22;31.87;35.60;;
69608;Laerm;57251;52.248;4.812;2023-06-14T00:50:01;34.42;32.58;35.86;;
69608;Laerm;57251;52.248;4.812;2023-06-14T00:50:11;34.73;32.50;36.50;;
69608;Laerm;57251;52.248;4.812;2023-06-14T00:50:23;34.56;32.94;36.85;;
69608;Laerm;57251;52.248;4.812;2023-06-14T00:50:33;33.76;32.35;35.89;;
69608;Laerm;57251;52.248;4.812;2023-06-14T00:50:44;34.17;32.32;35.59;;
69608;Laerm;57251;52.248;4.812;2023-06-14T00:50:55;34.78;33.07;36.72;;
69608;Laerm;57251;52.248;4.812;2023-06-14T00:51:06;34.34;32.43;35.87;;
69608;Laerm;57251;52.248;4.812;2023-06-14T00:51:16;34.35;32.34;38.35;;
69608;Laerm;57251;52.248;4.812;2023-06-14T00:51:27;35.16;32.79;39.35;;
69608;Laerm;57251;52.248;4.812;2023-06-14T00:51:37;35.62;33.18;39.33;;
69608;Laerm;57251;52.248;4.812;2023-06-14T00:51:47;36.10;32.94;43.22;;
69608;Laerm;57251;52.248;4.812;2023-06-14T00:51:58;34.20;32.16;38.56;;
69608;Laerm;57251;52.248;4.812;2023-06-14T00:52:08;33.74;31.81;36.65;;
69608;Laerm;57251;52.248;4.812;2023-06-14T00:52:22;34.07;32.23;37.04;;
69608;Laerm;57251;52.248;4.812;2023-06-14T00:52:34;33.49;31.80;35.38;;
69608;Laerm;57251;52.248;4.812;2023-06-14T00:52:44;33.57;31.57;35.70;;
69608;Laerm;57251;52.248;4.812;2023-06-14T00:52:55;33.74;32.43;35.69;;
69608;Laerm;57251;52.248;4.812;2023-06-14T00:53:05;34.61;32.60;40.30;;
69608;Laerm;57251;52.248;4.812;2023-06-14T00:53:16;34.46;32.25;38.71;;
69608;Laerm;57251;52.248;4.812;2023-06-14T00:53:27;34.57;32.85;37.26;;
69608;Laerm;57251;52.248;4.812;2023-06-14T00:53:37;34.76;32.85;36.62;;
69608;Laerm;57251;52.248;4.812;2023-06-14T00:53:50;33.94;32.30;36.10;;
69608;Laerm;57251;52.248;4.812;2023-06-14T00:54:00;34.24;32.20;38.94;;
69608;Laerm;57251;52.248;4.812;2023-06-14T00:54:10;33.39;31.86;35.21;;
69608;Laerm;57251;52.248;4.812;2023-06-14T00:54:20;33.63;31.59;35.85;;
69608;Laerm;57251;52.248;4.812;2023-06-14T00:54:31;33.37;31.70;35.22;;
69608;Laerm;57251;52.248;4.812;2023-06-14T00:54:41;33.30;31.66;35.04;;
69608;Laerm;57251;52.248;4.812;2023-06-14T00:54:52;33.26;31.90;34.56;;
69608;Laerm;57251;52.248;4.812;2023-06-14T00:55:02;33.68;32.00;35.36;;
69608;Laerm;57251;52.248;4.812;2023-06-14T00:55:12;33.72;32.03;35.76;;
69608;Laerm;57251;52.248;4.812;2023-06-14T00:55:23;33.82;32.08;35.70;;
69608;Laerm;57251;52.248;4.812;2023-06-14T00:55:33;33.85;32.28;35.60;;
69608;Laerm;57251;52.248;4.812;2023-06-14T00:55:43;33.76;32.28;35.16;;
69608;Laerm;57251;52.248;4.812;2023-06-14T00:55:53;34.20;32.52;36.74;;
69608;Laerm;57251;52.248;4.812;2023-06-14T00:56:04;34.47;33.01;37.75;;
69608;Laerm;57251;52.248;4.812;2023-06-14T00:56:14;34.65;33.13;36.39;;
69608;Laerm;57251;52.248;4.812;2023-06-14T00:56:24;35.34;32.33;40.20;;
69608;Laerm;57251;52.248;4.812;2023-06-14T00:56:37;34.57;33.00;36.08;;
69608;Laerm;57251;52.248;4.812;2023-06-14T00:56:48;34.12;32.38;43.03;;
69608;Laerm;57251;52.248;4.812;2023-06-14T00:56:58;33.71;32.39;35.08;;
69608;Laerm;57251;52.248;4.812;2023-06-14T00:57:09;34.46;32.24;43.74;;
69608;Laerm;57251;52.248;4.812;2023-06-14T00:57:20;33.87;32.34;35.48;;
69608;Laerm;57251;52.248;4.812;2023-06-14T00:57:31;33.75;32.11;35.08;;
69608;Laerm;57251;52.248;4.812;2023-06-14T00:57:41;34.65;32.71;36.96;;
69608;Laerm;57251;52.248;4.812;2023-06-14T00:57:51;33.69;31.93;35.82;;
69608;Laerm;57251;52.248;4.812;2023-06-14T00:58:02;33.59;31.99;35.27;;
69608;Laerm;57251;52.248;4.812;2023-06-14T00:58:12;34.33;32.42;37.92;;
69608;Laerm;57251;52.248;4.812;2023-06-14T00:58:23;34.95;32.68;38.65;;
69608;Laerm;57251;52.248;4.812;2023-06-14T00:58:34;34.91;33.07;37.26;;
69608;Laerm;57251;52.248;4.812;2023-06-14T00:58:44;34.20;32.59;35.85;;
69608;Laerm;57251;52.248;4.812;2023-06-14T00:58:55;34.08;32.33;35.76;;
69608;Laerm;57251;52.248;4.812;2023-06-14T00:59:05;34.57;32.44;38.12;;
69608;Laerm;57251;52.248;4.812;2023-06-14T00:59:16;34.77;32.88;38.18;;
69608;Laerm;57251;52.248;4.812;2023-06-14T00:59:26;34.73;33.07;39.57;;
69608;Laerm;57251;52.248;4.812;2023-06-14T00:59:38;34.32;32.57;36.84;;
69608;Laerm;57251;52.248;4.812;2023-06-14T00:59:50;34.56;32.21;46.05;;